Time;durP1;ratioP1;P1;durP2;ratioP2;P2;SDS_P1;SDS_P2;PMS_P1;PMS_P2;Temp;Humidity;BMP_temperature;BMP_pressure;BME280_temperature;BME280_humidity;BME280_pressure;Samples;Min_cycle;Max_cycle;Signal;HPM_P1;HPM_P2
2023/08/25 00:01:15;;;;;;;10.18;3.67;;;19.70;99.90;;;;;;5012451;28;45093;-53
2023/08/25 00:03:41;;;;;;;8.52;3.90;;;19.60;99.90;;;;;;4997169;28;45299;-53
2023/08/25 00:06:08;;;;;;;9.43;3.80;;;19.30;99.90;;;;;;5009653;28;45202;-53
2023/08/25 00:08:35;;;;;;;6.32;1.90;;;19.40;99.90;;;;;;5012661;28;45222;-54
2023/08/25 00:11:04;;;;;;;6.57;2.85;;;20.40;99.90;;;;;;5007150;28;45111;-53
2023/08/25 00:13:30;;;;;;;5.80;3.03;;;21.10;99.90;;;;;;5020318;28;45208;-53
2023/08/25 00:15:57;;;;;;;7.43;3.03;;;20.70;99.90;;;;;;5015611;28;45169;-53
2023/08/25 00:18:24;;;;;;;5.53;3.28;;;19.80;99.90;;;;;;5019866;28;45083;-53
2023/08/25 00:20:51;;;;;;;7.75;3.10;;;19.20;99.90;;;;;;5022929;28;45277;-54
2023/08/25 00:23:17;;;;;;;14.45;3.63;;;19.00;99.90;;;;;;5017808;28;46523;-54
2023/08/25 00:25:45;;;;;;;16.52;3.30;;;18.90;99.90;;;;;;5017074;28;45248;-53
2023/08/25 00:28:13;;;;;;;12.68;3.70;;;18.80;99.90;;;;;;5023652;28;45224;-53
2023/08/25 00:30:40;;;;;;;5.85;3.60;;;18.70;99.90;;;;;;5019866;28;44698;-53
2023/08/25 00:33:07;;;;;;;8.35;3.63;;;18.70;99.90;;;;;;5018210;28;45171;-53
2023/08/25 00:35:34;;;;;;;12.40;4.10;;;18.80;99.90;;;;;;5022870;28;45068;-53
2023/08/25 00:38:01;;;;;;;12.95;3.90;;;18.90;99.90;;;;;;5021159;28;45168;-53
2023/08/25 00:40:27;;;;;;;11.73;3.90;;;18.90;99.90;;;;;;5021029;28;44734;-53
2023/08/25 00:42:54;;;;;;;8.73;4.63;;;18.90;99.90;;;;;;5011216;28;46545;-53
2023/08/25 00:45:23;;;;;;;7.35;3.53;;;18.90;99.90;;;;;;5020615;28;45106;-53
2023/08/25 00:47:49;;;;;;;10.00;4.18;;;18.90;99.90;;;;;;5018665;28;45077;-53
2023/08/25 00:50:16;;;;;;;10.23;3.95;;;18.90;99.90;;;;;;5015108;28;45207;-53
2023/08/25 00:52:43;;;;;;;9.60;4.70;;;18.90;99.90;;;;;;5016435;28;47074;-54
2023/08/25 00:55:10;;;;;;;9.60;4.47;;;18.90;99.90;;;;;;5017856;28;45424;-53
2023/08/25 00:57:37;;;;;;;10.40;4.65;;;18.90;99.90;;;;;;5015105;28;45180;-53
2023/08/25 01:00:06;;;;;;;9.73;4.03;;;18.80;99.90;;;;;;5016274;28;44929;-53
2023/08/25 01:02:34;;;;;;;10.10;5.03;;;18.80;99.90;;;;;;5016412;28;45464;-53
2023/08/25 01:05:01;;;;;;;8.00;4.22;;;18.80;99.90;;;;;;5020723;28;45072;-53
2023/08/25 01:07:28;;;;;;;7.90;3.70;;;18.90;99.90;;;;;;5017325;28;45245;-53
2023/08/25 01:09:56;;;;;;;6.63;3.70;;;19.00;99.90;;;;;;5017687;28;44817;-53
2023/08/25 01:12:30;;;;;;;13.55;4.07;;;19.00;99.90;;;;;;5016595;28;47039;-53
2023/08/25 01:15:00;;;;;;;9.93;3.10;;;19.00;99.90;;;;;;5021047;28;45095;-54
2023/08/25 01:17:32;;;;;;;12.07;3.38;;;19.30;99.90;;;;;;5020807;28;45304;-53
2023/08/25 01:20:06;;;;;;;12.60;4.60;;;19.20;99.90;;;;;;5020231;28;45163;-54
2023/08/25 01:22:41;;;;;;;11.27;3.55;;;19.10;99.90;;;;;;5019939;28;47571;-53
2023/08/25 01:25:21;;;;;;;5.97;3.78;;;18.90;99.90;;;;;;5016808;28;45245;-53
2023/08/25 01:27:49;;;;;;;10.80;4.13;;;18.80;99.90;;;;;;5016214;28;45381;-54
2023/08/25 01:30:16;;;;;;;12.23;4.03;;;18.80;99.90;;;;;;5015866;28;45173;-53
2023/08/25 01:32:43;;;;;;;6.78;4.53;;;18.70;99.90;;;;;;5018534;28;45254;-53
2023/08/25 01:35:14;;;;;;;13.20;4.07;;;18.70;99.90;;;;;;5018551;28;45476;-54
2023/08/25 01:37:45;;;;;;;10.13;4.50;;;18.60;99.90;;;;;;5021701;28;45202;-53
2023/08/25 01:40:21;;;;;;;8.05;4.07;;;18.60;99.90;;;;;;5020661;28;45183;-53
2023/08/25 01:42:52;;;;;;;13.07;4.10;;;18.60;99.90;;;;;;5018952;28;46096;-53
2023/08/25 01:45:21;;;;;;;14.27;4.32;;;18.60;99.90;;;;;;5020675;28;45111;-53
2023/08/25 01:47:51;;;;;;;11.35;3.85;;;18.70;99.90;;;;;;5017066;28;45461;-53
2023/08/25 01:50:21;;;;;;;13.20;4.07;;;18.90;99.90;;;;;;5021668;28;45320;-53
2023/08/25 01:52:48;;;;;;;12.88;3.67;;;18.90;99.90;;;;;;5019511;28;45437;-54
2023/08/25 01:55:15;;;;;;;10.73;3.78;;;18.80;99.90;;;;;;5018898;28;44622;-54
2023/08/25 01:57:43;;;;;;;14.80;4.03;;;18.80;99.90;;;;;;5022902;28;45392;-54
2023/08/25 02:00:11;;;;;;;9.18;3.40;;;18.80;99.90;;;;;;5022781;28;45322;-54
2023/08/25 02:02:38;;;;;;;11.00;3.15;;;18.70;99.90;;;;;;5020157;28;47044;-53
2023/08/25 02:05:06;;;;;;;6.63;3.13;;;18.70;99.90;;;;;;5022718;28;45021;-53
2023/08/25 02:07:33;;;;;;;13.00;2.97;;;18.70;99.90;;;;;;5021416;28;45099;-54
2023/08/25 02:09:59;;;;;;;6.85;2.65;;;18.80;99.90;;;;;;5020480;28;45305;-54
2023/08/25 02:12:26;;;;;;;10.82;3.40;;;19.10;99.90;;;;;;5020096;28;46515;-53
2023/08/25 02:14:54;;;;;;;6.78;2.95;;;19.80;99.90;;;;;;5022956;28;45558;-54
2023/08/25 02:17:21;;;;;;;10.20;3.03;;;19.70;99.90;;;;;;5016437;28;45055;-53
2023/08/25 02:19:48;;;;;;;7.57;3.28;;;19.20;99.90;;;;;;5023853;28;45384;-54
2023/08/25 02:22:14;;;;;;;10.10;4.10;;;18.90;99.90;;;;;;5019958;28;46574;-53
2023/08/25 02:24:41;;;;;;;8.20;3.58;;;18.80;99.90;;;;;;5023383;28;45089;-53
2023/08/25 02:27:08;;;;;;;8.52;3.45;;;18.60;99.90;;;;;;5018740;28;45155;-53
2023/08/25 02:29:34;;;;;;;13.70;3.75;;;18.60;99.90;;;;;;5016960;28;45182;-54
2023/08/25 02:32:03;;;;;;;13.15;4.13;;;18.60;99.90;;;;;;5014440;28;46568;-54
2023/08/25 02:34:30;;;;;;;9.82;3.83;;;18.50;99.90;;;;;;5019605;28;45230;-54
2023/08/25 02:36:56;;;;;;;8.80;4.20;;;18.50;99.90;;;;;;5023610;28;45050;-54
2023/08/25 02:39:23;;;;;;;11.40;4.28;;;18.40;99.90;;;;;;5018415;28;44879;-54
2023/08/25 02:41:50;;;;;;;7.53;4.05;;;18.50;99.90;;;;;;5014585;28;45308;-54
2023/08/25 02:44:17;;;;;;;6.28;4.47;;;18.50;99.90;;;;;;5020383;28;45226;-54
2023/08/25 02:46:44;;;;;;;15.60;4.70;;;18.50;99.90;;;;;;5021929;28;45204;-54
2023/08/25 02:49:12;;;;;;;10.90;4.57;;;18.50;99.90;;;;;;5016892;28;45199;-54
2023/08/25 02:51:39;;;;;;;11.13;4.55;;;18.50;99.90;;;;;;5016822;28;46232;-53
2023/08/25 02:54:06;;;;;;;13.48;4.43;;;18.50;99.90;;;;;;5021420;28;45082;-53
2023/08/25 02:56:32;;;;;;;6.50;3.50;;;18.50;99.90;;;;;;5021190;28;45193;-54
2023/08/25 02:58:59;;;;;;;8.23;3.72;;;18.60;99.90;;;;;;5017728;28;45234;-54
2023/08/25 03:01:26;;;;;;;11.73;4.22;;;18.60;99.90;;;;;;5018253;28;45381;-54
2023/08/25 03:03:53;;;;;;;11.00;4.43;;;18.60;99.90;;;;;;5017412;28;45203;-54
2023/08/25 03:06:21;;;;;;;8.70;4.00;;;18.50;99.90;;;;;;5018798;28;45155;-54
2023/08/25 03:08:48;;;;;;;8.95;4.15;;;18.50;99.90;;;;;;5020004;28;45313;-54
2023/08/25 03:11:14;;;;;;;6.22;3.13;;;18.60;99.90;;;;;;5021331;28;46406;-54
2023/08/25 03:13:41;;;;;;;9.60;3.50;;;19.70;99.90;;;;;;5017120;28;44608;-54
2023/08/25 03:16:08;;;;;;;10.48;4.07;;;19.40;99.90;;;;;;5015306;28;44661;-54
2023/08/25 03:18:37;;;;;;;9.68;3.85;;;19.00;99.90;;;;;;5020482;28;45166;-54
2023/08/25 03:21:04;;;;;;;10.38;4.13;;;18.80;99.90;;;;;;5016013;28;46314;-54
2023/08/25 03:23:35;;;;;;;9.10;4.15;;;18.60;99.90;;;;;;5013426;28;44644;-54
2023/08/25 03:26:03;;;;;;;8.23;4.32;;;18.50;99.90;;;;;;5020706;28;45127;-54
2023/08/25 03:28:30;;;;;;;8.13;4.38;;;18.40;99.90;;;;;;5016676;28;45586;-54
2023/08/25 03:30:57;;;;;;;11.40;4.70;;;18.40;99.90;;;;;;5016972;28;47276;-54
2023/08/25 03:33:23;;;;;;;7.95;4.63;;;18.40;99.90;;;;;;5016657;28;46601;-54
2023/08/25 03:35:50;;;;;;;15.57;5.15;;;18.50;99.90;;;;;;5021532;28;45394;-54
2023/08/25 03:38:17;;;;;;;9.82;4.28;;;18.30;99.90;;;;;;5018480;28;45171;-54
2023/08/25 03:40:46;;;;;;;14.00;4.57;;;18.30;99.90;;;;;;5020700;28;46548;-54
2023/08/25 03:43:12;;;;;;;9.82;4.93;;;18.30;99.90;;;;;;5015826;28;45441;-54
2023/08/25 03:45:39;;;;;;;9.02;4.88;;;18.30;99.90;;;;;;5022366;28;45296;-54
2023/08/25 03:48:06;;;;;;;7.93;5.25;;;18.20;99.90;;;;;;5013857;28;45350;-54
2023/08/25 03:50:33;;;;;;;11.82;5.28;;;18.30;99.90;;;;;;5020766;28;45194;-54
2023/08/25 03:52:59;;;;;;;10.70;5.35;;;18.20;99.90;;;;;;5019946;28;45349;-54
2023/08/25 03:55:26;;;;;;;9.23;5.53;;;18.10;99.90;;;;;;5019873;28;45207;-54
2023/08/25 03:57:54;;;;;;;11.63;5.85;;;17.90;99.90;;;;;;5019023;28;45117;-54
2023/08/25 04:00:21;;;;;;;12.95;5.93;;;18.00;99.90;;;;;;5019820;28;45293;-54
2023/08/25 04:02:48;;;;;;;15.38;6.43;;;18.00;99.90;;;;;;5017654;28;45096;-54
2023/08/25 04:05:15;;;;;;;11.88;6.43;;;18.00;99.90;;;;;;5016010;28;45258;-54
2023/08/25 04:07:41;;;;;;;11.45;5.60;;;18.00;99.90;;;;;;5021733;28;45236;-54
2023/08/25 04:10:09;;;;;;;10.52;5.82;;;18.00;99.90;;;;;;5013901;28;46302;-54
2023/08/25 04:12:35;;;;;;;10.88;6.47;;;18.00;99.90;;;;;;5015314;28;45171;-54
2023/08/25 04:15:04;;;;;;;13.32;7.00;;;18.00;99.90;;;;;;5019526;28;45195;-54
2023/08/25 04:17:34;;;;;;;17.50;7.75;;;18.00;99.90;;;;;;5017203;28;45190;-54
2023/08/25 04:20:01;;;;;;;9.40;6.43;;;18.10;99.90;;;;;;5019249;28;45185;-54
2023/08/25 04:22:27;;;;;;;16.67;7.00;;;18.10;99.90;;;;;;5016981;28;45094;-54
2023/08/25 04:24:54;;;;;;;10.35;6.75;;;18.10;99.90;;;;;;5020204;28;45107;-54
2023/08/25 04:27:21;;;;;;;15.57;6.75;;;18.20;99.90;;;;;;5016791;28;45096;-54
2023/08/25 04:29:48;;;;;;;11.32;6.15;;;18.40;99.90;;;;;;5019492;28;46567;-54
2023/08/25 04:32:16;;;;;;;11.48;6.40;;;18.40;99.90;;;;;;5020754;28;45237;-54
2023/08/25 04:34:43;;;;;;;11.48;5.80;;;18.50;99.90;;;;;;5020244;28;45238;-54
2023/08/25 04:37:10;;;;;;;12.98;5.85;;;18.40;99.90;;;;;;5018106;28;45198;-54
2023/08/25 04:39:37;;;;;;;12.20;5.90;;;18.50;99.90;;;;;;5018353;28;46987;-54
2023/08/25 04:42:04;;;;;;;11.45;5.40;;;18.60;99.90;;;;;;5017509;28;45088;-54
2023/08/25 04:44:30;;;;;;;12.15;6.03;;;18.60;99.90;;;;;;5017145;28;45211;-54
2023/08/25 04:46:57;;;;;;;8.07;4.95;;;18.70;99.90;;;;;;5019912;28;45104;-54
2023/08/25 04:49:26;;;;;;;8.75;4.40;;;18.70;99.90;;;;;;5018327;28;47487;-54
2023/08/25 04:51:52;;;;;;;8.75;4.43;;;18.70;99.90;;;;;;5010933;28;45473;-54
2023/08/25 04:54:19;;;;;;;6.97;4.13;;;18.40;99.90;;;;;;5015407;28;45176;-54
2023/08/25 04:56:46;;;;;;;6.57;4.30;;;18.20;99.90;;;;;;5013769;28;45194;-54
2023/08/25 04:59:13;;;;;;;6.07;4.28;;;18.10;99.90;;;;;;5018837;28;46267;-53
2023/08/25 05:01:40;;;;;;;8.25;5.47;;;18.00;99.90;;;;;;5019776;28;45270;-53
2023/08/25 05:04:08;;;;;;;9.98;4.40;;;18.10;99.90;;;;;;5015496;28;44847;-54
2023/08/25 05:06:36;;;;;;;7.60;4.60;;;18.20;99.90;;;;;;5018981;28;45342;-54
2023/08/25 05:09:03;;;;;;;14.25;5.30;;;18.20;99.90;;;;;;5016538;28;47055;-54
2023/08/25 05:11:33;;;;;;;14.60;5.75;;;18.30;99.90;;;;;;5018979;28;45216;-54
2023/08/25 05:14:00;;;;;;;13.48;6.18;;;18.20;99.90;;;;;;5018701;28;45195;-57
2023/08/25 05:16:26;;;;;;;10.10;5.93;;;18.40;99.90;;;;;;5018874;28;45151;-55
2023/08/25 05:18:53;;;;;;;10.40;6.55;;;18.40;99.90;;;;;;5014491;28;45433;-55
2023/08/25 05:21:20;;;;;;;13.63;6.05;;;18.30;99.90;;;;;;5014719;28;45103;-55
2023/08/25 05:23:49;;;;;;;13.80;6.70;;;18.20;99.90;;;;;;5018251;28;45123;-55
2023/08/25 05:26:16;;;;;;;9.38;6.25;;;18.20;99.90;;;;;;5017535;28;46114;-55
2023/08/25 05:28:44;;;;;;;11.57;6.47;;;18.30;99.90;;;;;;5019992;28;46250;-55
2023/08/25 05:31:11;;;;;;;14.73;6.82;;;18.20;99.90;;;;;;5016478;28;46267;-55
2023/08/25 05:33:38;;;;;;;14.27;6.70;;;18.20;99.90;;;;;;5017264;28;45401;-55
2023/08/25 05:36:05;;;;;;;11.82;6.93;;;18.30;99.90;;;;;;5018905;28;45292;-55
2023/08/25 05:38:32;;;;;;;8.85;6.38;;;18.20;99.90;;;;;;5008603;28;45247;-55
2023/08/25 05:41:00;;;;;;;9.05;5.90;;;18.30;99.90;;;;;;5020616;28;45258;-55
2023/08/25 05:43:27;;;;;;;12.15;6.15;;;18.30;99.90;;;;;;5019169;28;45406;-55
2023/08/25 05:45:54;;;;;;;9.60;6.15;;;18.40;99.90;;;;;;5016777;28;45095;-55
2023/08/25 05:48:21;;;;;;;12.18;6.15;;;18.30;99.90;;;;;;5015355;28;46353;-55
2023/08/25 05:50:48;;;;;;;10.93;6.32;;;18.40;99.90;;;;;;5020691;28;45205;-55
2023/08/25 05:53:14;;;;;;;9.52;6.13;;;18.40;99.90;;;;;;5016761;28;45199;-55
2023/08/25 05:55:41;;;;;;;12.98;7.10;;;18.40;99.90;;;;;;5018525;28;45396;-55
2023/08/25 05:58:10;;;;;;;11.45;6.57;;;18.50;99.90;;;;;;5016384;28;45437;-54
2023/08/25 06:00:37;;;;;;;13.20;7.38;;;18.50;99.90;;;;;;5014904;28;45174;-54
2023/08/25 06:03:05;;;;;;;9.05;5.75;;;18.50;99.90;;;;;;5016818;28;45175;-54
2023/08/25 06:05:31;;;;;;;15.60;6.43;;;18.60;99.90;;;;;;5015257;28;45187;-54
2023/08/25 06:07:58;;;;;;;10.90;5.82;;;18.70;99.90;;;;;;5017087;28;45236;-54
2023/08/25 06:10:25;;;;;;;9.90;6.53;;;18.80;99.90;;;;;;5019996;28;45154;-54
2023/08/25 06:12:52;;;;;;;12.50;5.75;;;18.90;99.90;;;;;;5017004;28;45068;-54
2023/08/25 06:15:20;;;;;;;8.07;5.75;;;18.90;99.90;;;;;;5021261;28;45432;-54
2023/08/25 06:17:46;;;;;;;16.67;5.50;;;18.90;99.90;;;;;;5019593;28;45450;-54
2023/08/25 06:20:13;;;;;;;10.73;6.00;;;18.90;99.90;;;;;;5018673;28;45278;-54
2023/08/25 06:22:41;;;;;;;10.38;5.80;;;19.00;99.90;;;;;;5018041;28;45123;-54
2023/08/25 06:25:09;;;;;;;13.75;6.50;;;19.00;99.90;;;;;;5021224;28;45261;-55
2023/08/25 06:27:37;;;;;;;15.48;7.55;;;19.10;99.90;;;;;;5021516;28;45247;-55
2023/08/25 06:30:04;;;;;;;20.95;8.30;;;19.00;99.90;;;;;;5019918;28;45116;-55
2023/08/25 06:32:32;;;;;;;11.73;6.90;;;18.90;99.90;;;;;;5010742;28;45148;-55
2023/08/25 06:34:59;;;;;;;11.43;7.40;;;18.90;99.90;;;;;;5020464;28;45137;-55
2023/08/25 06:37:26;;;;;;;13.07;7.68;;;19.10;99.90;;;;;;5021766;28;45268;-55
2023/08/25 06:39:52;;;;;;;10.73;8.15;;;19.20;99.90;;;;;;5022534;28;45664;-54
2023/08/25 06:42:19;;;;;;;13.02;6.93;;;19.30;99.90;;;;;;5013088;28;45382;-54
2023/08/25 06:44:46;;;;;;;6.43;3.63;;;19.30;99.90;;;;;;5022081;28;45171;-54
2023/08/25 06:47:13;;;;;;;7.90;4.68;;;20.20;99.90;;;;;;5018775;28;48353;-54
2023/08/25 06:49:41;;;;;;;9.23;5.95;;;20.80;99.90;;;;;;5020592;28;45132;-54
2023/08/25 06:52:07;;;;;;;11.55;3.85;;;21.10;99.90;;;;;;5020615;28;45143;-54
2023/08/25 06:54:34;;;;;;;5.13;3.10;;;21.30;99.90;;;;;;5023668;28;45155;-54
2023/08/25 06:57:01;;;;;;;9.60;5.97;;;21.50;99.90;;;;;;5020172;28;45972;-57
2023/08/25 06:59:28;;;;;;;10.50;6.45;;;21.50;99.90;;;;;;5020871;28;45068;-55
2023/08/25 07:01:55;;;;;;;12.75;6.70;;;21.40;99.90;;;;;;5019983;28;45251;-55
2023/08/25 07:04:21;;;;;;;5.22;3.22;;;20.90;99.90;;;;;;5021644;28;45159;-54
2023/08/25 07:06:50;;;;;;;8.63;4.55;;;21.10;99.90;;;;;;5022271;28;47469;-54
2023/08/25 07:09:17;;;;;;;8.40;5.20;;;21.60;99.90;;;;;;5020506;28;45062;-54
2023/08/25 07:11:44;;;;;;;7.72;5.13;;;21.30;99.90;;;;;;5020826;28;45263;-54
2023/08/25 07:14:10;;;;;;;10.10;4.85;;;21.30;99.90;;;;;;5021648;28;45165;-55
2023/08/25 07:16:37;;;;;;;30.15;8.23;;;21.20;99.90;;;;;;5019516;28;47232;-54
2023/08/25 07:19:04;;;;;;;56.20;9.82;;;21.10;99.90;;;;;;5018951;28;45212;-54
2023/08/25 07:21:31;;;;;;;48.50;8.10;;;20.80;99.90;;;;;;5019914;28;45235;-54
2023/08/25 07:24:00;;;;;;;15.95;6.57;;;20.50;99.90;;;;;;5017361;28;45258;-54
2023/08/25 07:26:26;;;;;;;16.00;6.50;;;20.30;99.90;;;;;;5018882;28;47086;-54
2023/08/25 07:28:53;;;;;;;12.68;6.22;;;20.30;99.90;;;;;;5022115;28;45190;-54
2023/08/25 07:31:20;;;;;;;11.23;6.38;;;20.30;99.90;;;;;;5017614;28;45270;-55
2023/08/25 07:33:47;;;;;;;13.38;5.85;;;20.40;99.90;;;;;;5020065;28;45175;-54
2023/08/25 07:36:14;;;;;;;11.57;4.88;;;20.40;99.90;;;;;;5018141;28;47691;-54
2023/08/25 07:38:40;;;;;;;12.95;6.65;;;20.50;99.90;;;;;;5020630;28;45229;-54
2023/08/25 07:41:09;;;;;;;20.27;7.60;;;20.50;99.90;;;;;;5019654;28;45282;-54
2023/08/25 07:43:36;;;;;;;84.00;9.57;;;20.50;99.90;;;;;;5019173;28;45215;-54
2023/08/25 07:46:04;;;;;;;14.10;5.43;;;20.40;99.90;;;;;;5019790;28;47944;-54
2023/08/25 07:48:30;;;;;;;21.08;6.30;;;20.20;99.90;;;;;;5011591;28;45440;-54
2023/08/25 07:50:57;;;;;;;19.20;7.05;;;20.20;99.90;;;;;;5022184;28;45182;-54
2023/08/25 07:53:24;;;;;;;15.73;6.13;;;20.20;99.90;;;;;;5018473;28;45456;-54
2023/08/25 07:55:51;;;;;;;15.80;5.50;;;20.20;99.90;;;;;;5022258;28;45177;-54
2023/08/25 07:58:20;;;;;;;16.55;6.05;;;20.20;99.90;;;;;;5018141;28;45166;-54
2023/08/25 08:00:47;;;;;;;12.82;5.80;;;20.30;99.90;;;;;;5012502;28;45186;-54
2023/08/25 08:03:14;;;;;;;15.48;6.32;;;20.30;99.90;;;;;;5013623;28;45304;-54
2023/08/25 08:05:41;;;;;;;13.48;6.13;;;20.40;99.90;;;;;;5019731;28;46158;-54
2023/08/25 08:08:09;;;;;;;9.88;5.70;;;20.40;99.90;;;;;;5019221;28;45201;-54
2023/08/25 08:10:36;;;;;;;10.68;4.40;;;20.40;99.90;;;;;;5022924;28;45120;-54
2023/08/25 08:13:03;;;;;;;9.80;3.10;;;20.60;99.90;;;;;;5016330;28;45083;-54
2023/08/25 08:15:31;;;;;;;8.57;2.72;;;21.20;99.90;;;;;;5016021;28;46218;-54
2023/08/25 08:17:59;;;;;;;6.00;2.58;;;21.70;99.90;;;;;;5013215;28;45304;-54
2023/08/25 08:20:27;;;;;;;7.15;2.30;;;21.90;99.90;;;;;;5007156;28;44728;-53
2023/08/25 08:22:54;;;;;;;5.93;2.35;;;22.10;99.90;;;;;;5012810;28;45360;-53
2023/08/25 08:25:21;;;;;;;4.20;2.08;;;22.20;99.90;;;;;;5011647;28;46234;-54
2023/08/25 08:27:48;;;;;;;2.60;1.70;;;22.30;99.90;;;;;;5016699;28;44670;-54
2023/08/25 08:30:16;;;;;;;4.07;2.08;;;22.40;99.90;;;;;;5003109;28;44736;-52
2023/08/25 08:32:44;;;;;;;2.65;1.77;;;22.50;99.90;;;;;;5011615;28;45479;-52
2023/08/25 08:35:12;;;;;;;3.08;1.60;;;22.50;99.90;;;;;;5003373;28;46324;-52
2023/08/25 08:37:40;;;;;;;5.07;1.70;;;22.60;99.90;;;;;;5003620;28;45087;-52
2023/08/25 08:40:09;;;;;;;2.83;1.60;;;22.70;99.90;;;;;;5013752;28;45184;-52
2023/08/25 08:42:37;;;;;;;3.83;1.55;;;22.70;99.90;;;;;;5013575;28;45183;-53
2023/08/25 08:45:07;;;;;;;4.13;1.60;;;22.80;99.90;;;;;;5013415;28;45147;-53
2023/08/25 08:47:35;;;;;;;4.28;1.60;;;22.80;99.90;;;;;;5013374;28;45135;-53
2023/08/25 08:50:06;;;;;;;2.40;1.67;;;22.80;99.90;;;;;;5011614;28;45220;-53
2023/08/25 08:52:33;;;;;;;3.83;1.55;;;22.80;99.90;;;;;;5015655;28;44771;-53
2023/08/25 08:55:00;;;;;;;2.97;1.52;;;22.80;99.90;;;;;;5020131;28;46358;-53
2023/08/25 08:57:28;;;;;;;1.80;1.40;;;22.90;99.90;;;;;;5020973;28;45104;-53
2023/08/25 08:59:58;;;;;;;4.65;1.60;;;22.90;99.90;;;;;;5017533;28;45038;-53
2023/08/25 09:02:27;;;;;;;2.13;1.20;;;22.90;99.90;;;;;;5018456;28;45126;-53
2023/08/25 09:04:54;;;;;;;3.85;1.65;;;22.90;99.90;;;;;;5012231;28;45261;-53
2023/08/25 09:07:26;;;;;;;3.42;1.52;;;23.00;99.90;;;;;;5009951;28;45086;-53
2023/08/25 09:09:53;;;;;;;4.07;1.60;;;23.00;99.90;;;;;;5007584;28;45159;-53
2023/08/25 09:12:21;;;;;;;3.17;1.30;;;23.00;99.90;;;;;;5008240;28;44686;-52
2023/08/25 09:14:47;;;;;;;2.50;1.52;;;23.00;99.90;;;;;;5007838;28;46187;-52
2023/08/25 09:17:15;;;;;;;5.25;1.80;;;23.00;99.90;;;;;;5012789;28;44618;-53
2023/08/25 09:19:42;;;;;;;2.67;1.60;;;23.00;99.90;;;;;;5012279;28;45230;-52
2023/08/25 09:22:11;;;;;;;3.00;1.30;;;23.00;99.90;;;;;;5004748;28;45269;-52
2023/08/25 09:24:39;;;;;;;3.17;1.33;;;23.00;99.90;;;;;;5015566;28;45273;-53
2023/08/25 09:27:06;;;;;;;2.90;1.38;;;23.00;99.90;;;;;;5019948;28;45179;-53
2023/08/25 09:29:41;;;;;;;2.63;1.40;;;23.00;99.90;;;;;;5022004;28;45191;-53
2023/08/25 09:32:13;;;;;;;1.65;1.00;;;23.10;99.90;;;;;;5016667;28;45113;-53
2023/08/25 09:34:40;;;;;;;2.45;1.25;;;23.10;99.90;;;;;;5023410;28;46969;-53
2023/08/25 09:37:07;;;;;;;2.70;1.35;;;23.00;99.90;;;;;;5022995;28;45537;-53
2023/08/25 09:39:43;;;;;;;2.67;1.25;;;23.10;99.90;;;;;;5023264;28;45096;-53
2023/08/25 09:42:11;;;;;;;2.58;1.20;;;23.10;99.90;;;;;;5017951;28;45185;-53
2023/08/25 09:44:38;;;;;;;1.23;1.10;;;23.10;99.90;;;;;;5022472;28;48024;-53
2023/08/25 09:47:06;;;;;;;2.17;1.30;;;23.10;99.90;;;;;;5024039;28;44803;-53
2023/08/25 09:49:39;;;;;;;1.98;1.35;;;23.10;99.90;;;;;;5024531;28;45096;-53
2023/08/25 09:52:06;;;;;;;3.55;1.20;;;23.10;99.90;;;;;;5025521;28;45079;-53
2023/08/25 09:54:34;;;;;;;2.83;1.40;;;23.10;99.90;;;;;;5026346;28;47460;-53
2023/08/25 09:57:03;;;;;;;2.15;1.10;;;23.10;99.90;;;;;;5019597;28;45497;-53
2023/08/25 09:59:31;;;;;;;2.00;1.30;;;23.10;99.90;;;;;;5026064;28;45212;-53
2023/08/25 10:01:58;;;;;;;1.50;1.25;;;23.10;99.90;;;;;;5020926;28;45239;-54
2023/08/25 10:04:25;;;;;;;1.75;1.40;;;23.00;99.90;;;;;;5026178;28;47003;-54
2023/08/25 10:06:53;;;;;;;2.72;1.55;;;23.10;99.90;;;;;;5023821;28;45102;-54
2023/08/25 10:09:20;;;;;;;1.90;1.23;;;23.10;99.90;;;;;;5026257;28;45152;-54
2023/08/25 10:11:49;;;;;;;2.05;1.42;;;23.10;99.90;;;;;;5023090;28;44671;-54
2023/08/25 10:14:23;;;;;;;1.75;1.20;;;23.10;99.90;;;;;;5022651;28;45253;-54
2023/08/25 10:16:50;;;;;;;3.35;1.67;;;23.10;99.90;;;;;;5023055;28;45264;-53
2023/08/25 10:19:23;;;;;;;3.03;1.50;;;23.10;99.90;;;;;;5025152;28;44636;-53
2023/08/25 10:21:51;;;;;;;2.70;1.38;;;23.10;99.90;;;;;;5014233;28;45168;-54
2023/08/25 10:24:20;;;;;;;2.30;1.13;;;23.00;99.90;;;;;;5016081;28;46998;-53
2023/08/25 10:26:48;;;;;;;3.42;1.50;;;23.00;99.90;;;;;;5021430;28;45159;-53
2023/08/25 10:29:19;;;;;;;1.75;1.25;;;23.10;99.90;;;;;;5011060;28;45271;-54
2023/08/25 10:31:47;;;;;;;2.35;1.30;;;23.10;99.90;;;;;;5013008;28;45107;-53
2023/08/25 10:34:36;;;;;;;2.83;1.10;;;23.10;99.90;;;;;;5024258;28;46567;-54
2023/08/25 10:37:07;;;;;;;2.00;1.30;;;23.10;99.90;;;;;;5022146;28;45211;-53
2023/08/25 10:39:46;;;;;;;2.03;1.20;;;23.10;99.90;;;;;;5023747;28;45216;-53
2023/08/25 10:42:13;;;;;;;1.85;1.20;;;23.10;99.90;;;;;;5015059;28;45378;-53
2023/08/25 10:44:42;;;;;;;3.00;1.45;;;23.10;99.90;;;;;;5023827;28;45246;-53
2023/08/25 10:47:09;;;;;;;1.88;1.13;;;23.10;99.90;;;;;;5024393;28;45104;-54
2023/08/25 10:49:38;;;;;;;2.03;1.15;;;23.10;99.90;;;;;;5022607;28;45183;-53
2023/08/25 10:52:23;;;;;;;1.73;1.48;;;23.10;99.90;;;;;;5024667;28;45103;-53
2023/08/25 10:54:52;;;;;;;3.20;1.20;;;23.10;99.90;;;;;;5021247;28;47967;-53
2023/08/25 10:57:20;;;;;;;3.33;1.30;;;23.10;99.90;;;;;;5023766;28;45148;-53
2023/08/25 10:59:51;;;;;;;2.10;1.27;;;23.10;99.90;;;;;;5020820;28;45123;-53
2023/08/25 11:02:34;;;;;;;2.38;1.30;;;23.10;99.90;;;;;;5023611;28;45255;-53
2023/08/25 11:05:39;;;;;;;2.05;1.00;;;23.10;99.90;;;;;;5019815;28;47411;-53
2023/08/25 11:08:23;;;;;;;1.38;1.10;;;23.10;99.90;;;;;;5020808;28;45328;-53
2023/08/25 11:11:09;;;;;;;1.98;1.35;;;23.10;99.90;;;;;;5019628;28;45390;-53
2023/08/25 11:13:38;;;;;;;1.02;0.93;;;23.10;99.90;;;;;;5018962;28;44887;-53
2023/08/25 11:16:09;;;;;;;1.20;1.10;;;23.10;99.90;;;;;;5019999;28;47217;-54
2023/08/25 11:18:36;;;;;;;1.23;1.00;;;23.10;99.90;;;;;;5016798;28;45171;-53
2023/08/25 11:21:04;;;;;;;2.15;1.35;;;23.10;99.90;;;;;;5010964;28;45280;-53
2023/08/25 11:23:38;;;;;;;2.63;1.20;;;23.10;99.90;;;;;;5014682;28;45347;-53
2023/08/25 11:26:06;;;;;;;1.33;1.00;;;23.10;99.90;;;;;;5019941;28;46260;-53
2023/08/25 11:28:33;;;;;;;1.00;0.70;;;23.10;99.90;;;;;;5021096;28;45291;-53
2023/08/25 11:31:00;;;;;;;1.45;1.20;;;23.10;99.90;;;;;;5017176;28;45238;-52
2023/08/25 11:33:31;;;;;;;2.58;0.90;;;23.10;99.90;;;;;;5018833;28;45268;-52
2023/08/25 11:35:57;;;;;;;2.08;0.98;;;23.10;99.90;;;;;;5017403;28;47493;-53
2023/08/25 11:38:24;;;;;;;2.00;1.08;;;23.10;99.90;;;;;;5021331;28;45200;-52
2023/08/25 11:40:55;;;;;;;7.10;2.72;;;23.10;99.90;;;;;;5018306;28;44687;-52
2023/08/25 11:43:21;;;;;;;7.53;3.15;;;23.10;99.90;;;;;;5009623;28;45150;-52
2023/08/25 11:45:49;;;;;;;5.05;2.40;;;23.10;99.90;;;;;;5009820;28;45170;-52
2023/08/25 11:48:15;;;;;;;3.58;1.52;;;23.10;99.90;;;;;;5016277;28;44608;-53
2023/08/25 11:50:44;;;;;;;2.42;1.40;;;23.10;99.90;;;;;;5019852;28;45130;-53
2023/08/25 11:53:10;;;;;;;1.98;1.45;;;23.10;99.90;;;;;;5014891;28;45189;-54
2023/08/25 11:55:37;;;;;;;2.95;1.40;;;23.10;99.90;;;;;;5011267;28;46233;-53
2023/08/25 11:58:08;;;;;;;2.95;1.35;;;23.20;99.90;;;;;;5024024;28;45072;-54
2023/08/25 12:00:38;;;;;;;1.83;1.35;;;23.10;99.90;;;;;;5016848;28;45144;-53
2023/08/25 12:03:05;;;;;;;2.10;1.13;;;23.20;99.90;;;;;;5012957;28;45126;-53
2023/08/25 12:05:35;;;;;;;2.10;1.40;;;23.20;99.90;;;;;;5016099;28;46462;-54
2023/08/25 12:08:03;;;;;;;1.75;1.30;;;23.10;99.90;;;;;;5010929;28;45194;-54
2023/08/25 12:10:36;;;;;;;1.35;1.10;;;23.10;99.90;;;;;;5013196;28;45224;-54
2023/08/25 12:13:03;;;;;;;2.67;1.40;;;23.10;99.90;;;;;;5018374;28;45251;-54
2023/08/25 12:15:40;;;;;;;3.30;1.50;;;23.10;99.90;;;;;;5019443;28;46683;-54
2023/08/25 12:18:07;;;;;;;1.77;1.15;;;23.20;99.90;;;;;;5019422;28;45436;-53
2023/08/25 12:20:34;;;;;;;3.20;1.40;;;23.10;99.90;;;;;;5014702;28;45309;-53
2023/08/25 12:23:02;;;;;;;1.73;1.27;;;23.10;99.90;;;;;;5015645;28;45218;-53
2023/08/25 12:25:31;;;;;;;3.10;1.92;;;23.10;99.90;;;;;;5019281;28;45199;-53
2023/08/25 12:27:59;;;;;;;2.17;1.17;;;23.10;99.90;;;;;;5020544;28;44627;-53
2023/08/25 12:30:27;;;;;;;2.08;1.33;;;23.10;99.90;;;;;;5020092;28;45072;-54
2023/08/25 12:32:55;;;;;;;2.40;1.30;;;23.10;99.90;;;;;;5019655;28;45234;-54
2023/08/25 12:35:22;;;;;;;2.95;1.00;;;23.10;99.90;;;;;;5018703;28;45240;-53
2023/08/25 12:37:50;;;;;;;1.98;1.40;;;23.10;99.90;;;;;;5018018;28;44716;-54
2023/08/25 12:40:20;;;;;;;2.78;1.52;;;23.10;99.90;;;;;;5015942;28;45412;-53
2023/08/25 12:42:47;;;;;;;3.22;1.33;;;23.10;99.90;;;;;;5014662;28;45098;-53
2023/08/25 12:45:15;;;;;;;1.35;1.17;;;23.10;99.90;;;;;;5014928;28;47456;-54
2023/08/25 12:47:42;;;;;;;2.13;1.17;;;23.10;99.90;;;;;;5015940;28;45253;-61